Terminal Aerodrome Forecast
Issued by NWS

Home | Current Version | Previous Version | Text Only | Print | Product List | Glossary On
Versions: 1 2 3 4 5 6 7 8 9 10 11 12 13 14 15 16 17 18 19
958
FTUS41 KILN 290538
TAFLCK
TAF
KLCK 290538Z 2906/3006 00000KT 4SM BR SCT120 BKN250
      TEMPO 2907/2911 2SM BR
     FM291300 20005KT P6SM VCSH SCT080 BKN250
     FM291500 20008KT P6SM SCT080 BKN250
     FM300100 20003KT P6SM VCTS BKN040CB
     FM300400 00000KT P6SM BKN040=

USA.gov is the U.S. government's official web portal to all federal, state and local government web resources and services.